Time;durP1;ratioP1;P1;durP2;ratioP2;P2;SDS_P1;SDS_P2;PMS_P1;PMS_P2;Temp;Humidity;BMP_temperature;BMP_pressure;BME280_temperature;BME280_humidity;BME280_pressure;Samples;Min_cycle;Max_cycle;Signal;HPM_P1;HPM_P2
2020/12/13 00:00:23;;;;;;;8.30;6.80;;;;;;;6.61;100.00;95189.69;5041628;28;20992;-84
2020/12/13 00:02:49;;;;;;;11.60;7.10;;;;;;;6.60;100.00;95188.97;5041948;28;20429;-84
2020/12/13 00:05:16;;;;;;;9.43;7.30;;;;;;;6.63;100.00;95201.28;5043366;28;20413;-83
2020/12/13 00:07:42;;;;;;;8.77;7.20;;;;;;;6.67;100.00;95200.91;5054083;28;20782;-85
2020/12/13 00:10:09;;;;;;;10.47;7.03;;;;;;;6.65;100.00;95203.41;5040079;28;20441;-86
2020/12/13 00:12:37;;;;;;;7.80;6.47;;;;;;;6.59;100.00;95200.94;5039115;28;20410;-87
2020/12/13 00:15:04;;;;;;;9.77;7.30;;;;;;;6.57;100.00;95202.72;5038858;28;20547;-87
2020/12/13 00:17:30;;;;;;;10.77;8.30;;;;;;;6.56;100.00;95202.00;5037981;28;20442;-87
2020/12/13 00:19:57;;;;;;;11.23;8.00;;;;;;;6.57;100.00;95200.06;5038329;28;20497;-87
2020/12/13 00:22:23;;;;;;;10.17;7.47;;;;;;;6.59;100.00;95205.56;5037900;28;20910;-86
2020/12/13 00:24:50;;;;;;;11.30;8.20;;;;;;;6.54;100.00;95207.22;5038641;28;20494;-86
2020/12/13 00:27:17;;;;;;;9.80;7.97;;;;;;;6.59;100.00;95213.59;5037898;28;20448;-85
2020/12/13 00:29:44;;;;;;;9.00;7.17;;;;;;;6.57;100.00;95216.84;5037990;28;20443;-86
2020/12/13 00:32:10;;;;;;;9.70;7.00;;;;;;;6.56;100.00;95217.38;5038763;28;20426;-86
2020/12/13 00:34:37;;;;;;;11.13;7.20;;;;;;;6.50;100.00;95219.53;5038175;28;20504;-86
2020/12/13 00:37:03;;;;;;;12.23;7.60;;;;;;;6.50;100.00;95222.22;5038415;28;20447;-86
2020/12/13 00:39:30;;;;;;;11.40;6.87;;;;;;;6.51;100.00;95224.38;5038791;28;20520;-86
2020/12/13 00:41:56;;;;;;;9.03;6.87;;;;;;;6.50;100.00;95230.25;5049906;28;20426;-85
2020/12/13 00:44:23;;;;;;;9.27;7.33;;;;;;;6.52;100.00;95228.44;5060631;28;20501;-83
2020/12/13 00:46:50;;;;;;;13.33;6.37;;;;;;;6.55;100.00;95230.06;5058329;28;20436;-85
2020/12/13 00:49:16;;;;;;;8.50;7.00;;;;;;;6.57;100.00;95234.88;5037321;28;20813;-85
2020/12/13 00:51:43;;;;;;;9.87;7.20;;;;;;;6.53;100.00;95231.84;5037533;28;20414;-85
2020/12/13 00:54:10;;;;;;;9.40;6.60;;;;;;;6.55;100.00;95234.72;5037878;28;20425;-85
2020/12/13 00:56:36;;;;;;;9.47;6.70;;;;;;;6.52;100.00;95236.50;5037267;28;20454;-85
2020/12/13 00:59:03;;;;;;;8.00;6.17;;;;;;;6.58;100.00;95239.00;5035948;28;20534;-85
2020/12/13 01:01:31;;;;;;;9.50;6.67;;;;;;;6.64;100.00;95242.19;5037510;28;20509;-85
2020/12/13 01:03:57;;;;;;;8.20;6.50;;;;;;;6.58;100.00;95242.38;5036837;28;20991;-85
2020/12/13 01:06:24;;;;;;;9.00;7.13;;;;;;;6.60;100.00;95241.84;5037283;28;20417;-85
2020/12/13 01:08:52;;;;;;;7.43;6.60;;;;;;;6.56;100.00;95244.88;5037025;28;20459;-85
2020/12/13 01:11:23;;;;;;;7.87;5.67;;;;;;;6.56;100.00;95252.22;5037319;28;20509;-85
2020/12/13 01:13:49;;;;;;;8.30;6.10;;;;;;;6.51;100.00;95253.84;5036883;28;20406;-85
2020/12/13 01:16:17;;;;;;;13.40;7.23;;;;;;;6.49;100.00;95253.66;5036863;28;20447;-85
2020/12/13 01:18:44;;;;;;;8.10;6.80;;;;;;;6.56;100.00;95260.97;5037032;28;20529;-86
2020/12/13 01:21:15;;;;;;;9.97;6.73;;;;;;;6.60;100.00;95263.28;5037281;28;20493;-86
2020/12/13 01:23:42;;;;;;;8.63;6.03;;;;;;;6.59;100.00;95264.53;5037262;28;20446;-85
2020/12/13 01:26:11;;;;;;;8.53;6.47;;;;;;;6.61;100.00;95267.41;5036671;28;20450;-85
2020/12/13 01:28:37;;;;;;;8.17;5.23;;;;;;;6.67;100.00;95276.66;5036562;28;20459;-85
2020/12/13 01:31:04;;;;;;;7.77;5.73;;;;;;;6.70;100.00;95267.56;5036861;28;20414;-85
2020/12/13 01:33:30;;;;;;;8.37;5.43;;;;;;;6.68;100.00;95277.38;5036079;28;20954;-85
2020/12/13 01:35:57;;;;;;;7.60;5.60;;;;;;;6.63;100.00;95276.31;5036660;28;20418;-85
2020/12/13 01:38:24;;;;;;;7.50;5.80;;;;;;;6.55;100.00;95277.59;5037256;28;20434;-86
2020/12/13 01:40:55;;;;;;;6.57;5.50;;;;;;;6.53;100.00;95280.81;5036671;28;20436;-86
2020/12/13 01:43:21;;;;;;;8.00;6.17;;;;;;;6.45;100.00;95283.47;5036242;28;20537;-86
2020/12/13 01:45:48;;;;;;;6.73;6.03;;;;;;;6.42;100.00;95281.88;5037232;28;20421;-86
2020/12/13 01:48:14;;;;;;;7.47;5.60;;;;;;;6.39;100.00;95288.31;5035926;28;20938;-85
2020/12/13 01:50:43;;;;;;;7.30;5.60;;;;;;;6.43;100.00;95288.69;5036494;28;20447;-85
2020/12/13 01:53:15;;;;;;;5.70;4.70;;;;;;;6.45;100.00;95288.84;5036665;28;20766;-85
2020/12/13 01:55:43;;;;;;;8.63;4.77;;;;;;;6.45;100.00;95288.84;5036374;28;20438;-86
2020/12/13 01:58:16;;;;;;;14.60;5.20;;;;;;;6.55;100.00;95293.69;5035570;28;20434;-86
2020/12/13 02:00:46;;;;;;;5.60;4.60;;;;;;;6.59;100.00;95302.03;5035987;28;20421;-85
2020/12/13 02:03:19;;;;;;;6.23;4.43;;;;;;;6.56;100.00;95303.13;5035844;28;20475;-86
2020/12/13 02:05:50;;;;;;;7.50;4.87;;;;;;;6.48;100.00;95301.16;5035913;28;20881;-86
2020/12/13 02:08:22;;;;;;;6.30;5.00;;;;;;;6.52;100.00;95306.16;5035944;28;20461;-86
2020/12/13 02:10:48;;;;;;;10.23;4.53;;;;;;;6.51;100.00;95312.06;5035065;28;21039;-86
2020/12/13 02:13:15;;;;;;;5.80;4.50;;;;;;;6.46;100.00;95314.41;5036224;28;20410;-86
2020/12/13 02:15:41;;;;;;;4.63;3.90;;;;;;;6.52;100.00;95313.47;5035579;28;20850;-84
2020/12/13 02:18:08;;;;;;;4.80;3.80;;;;;;;6.52;100.00;95318.84;5036153;28;20566;-84
2020/12/13 02:20:35;;;;;;;4.23;3.30;;;;;;;6.52;100.00;95316.16;5035557;28;20413;-85
2020/12/13 02:23:07;;;;;;;6.10;3.60;;;;;;;6.54;100.00;95319.03;5035708;28;20538;-83
2020/12/13 02:25:33;;;;;;;6.17;4.70;;;;;;;6.53;100.00;95321.00;5035679;28;20472;-84
2020/12/13 02:27:59;;;;;;;4.53;3.80;;;;;;;6.54;100.00;95317.06;5035461;28;20428;-84
2020/12/13 02:30:26;;;;;;;5.13;3.50;;;;;;;6.52;100.00;95319.56;5035822;28;20448;-84
2020/12/13 02:33:01;;;;;;;5.30;3.57;;;;;;;6.52;100.00;95316.88;5054036;28;20402;-86
2020/12/13 02:35:27;;;;;;;5.27;4.20;;;;;;;6.53;100.00;95331.00;5059316;28;20445;-85
2020/12/13 02:37:55;;;;;;;5.23;3.70;;;;;;;6.53;100.00;95334.41;5059301;28;20440;-86
2020/12/13 02:40:22;;;;;;;6.00;4.90;;;;;;;6.55;100.00;95339.22;5052058;28;20474;-84
2020/12/13 02:42:48;;;;;;;5.70;4.50;;;;;;;6.54;100.00;95337.78;5035025;28;20497;-84
2020/12/13 02:45:15;;;;;;;5.40;3.90;;;;;;;6.54;100.00;95335.13;5035183;28;20465;-83
2020/12/13 02:47:41;;;;;;;7.20;4.33;;;;;;;6.57;100.00;95334.75;5035617;28;20497;-84
2020/12/13 02:50:08;;;;;;;4.47;4.00;;;;;;;6.56;100.00;95340.63;5035291;28;20492;-84
2020/12/13 02:52:34;;;;;;;5.90;4.60;;;;;;;6.58;100.00;95343.50;5034939;28;20962;-84
2020/12/13 02:55:00;;;;;;;6.07;4.53;;;;;;;6.58;100.00;95348.88;5035292;28;20421;-84
2020/12/13 02:57:28;;;;;;;5.93;4.87;;;;;;;6.56;100.00;95340.63;5035237;28;20477;-84
2020/12/13 02:59:54;;;;;;;5.90;4.83;;;;;;;6.59;100.00;95355.63;5034832;28;20969;-84
2020/12/13 03:02:21;;;;;;;6.00;5.20;;;;;;;6.53;100.00;95355.84;5034949;28;20439;-84
2020/12/13 03:04:47;;;;;;;5.60;4.80;;;;;;;6.57;100.00;95358.16;5034683;28;20462;-84
2020/12/13 03:07:13;;;;;;;5.47;4.30;;;;;;;6.57;100.00;95358.16;5034998;28;20425;-84
2020/12/13 03:09:40;;;;;;;6.20;4.20;;;;;;;6.54;100.00;95351.19;5035199;28;20467;-84
2020/12/13 03:12:06;;;;;;;5.63;4.67;;;;;;;6.57;100.00;95347.44;5035173;28;20419;-84
2020/12/13 03:14:33;;;;;;;7.67;4.70;;;;;;;6.53;100.00;95347.78;5035004;28;20410;-84
2020/12/13 03:17:00;;;;;;;5.70;4.60;;;;;;;6.51;100.00;95344.94;5035165;28;20525;-84
2020/12/13 03:19:26;;;;;;;6.40;4.77;;;;;;;6.52;100.00;95351.00;5034601;28;20449;-83
2020/12/13 03:21:52;;;;;;;6.63;4.40;;;;;;;6.52;100.00;95356.34;5034106;28;20421;-83
2020/12/13 03:24:19;;;;;;;5.27;4.37;;;;;;;6.50;100.00;95361.53;5034922;28;20848;-83
2020/12/13 03:26:45;;;;;;;7.77;4.57;;;;;;;6.41;100.00;95365.50;5036883;28;20418;-83
2020/12/13 03:29:11;;;;;;;4.80;4.20;;;;;;;6.37;100.00;95365.84;5034564;28;20983;-84
2020/12/13 03:31:39;;;;;;;4.93;4.47;;;;;;;6.40;100.00;95367.44;5034494;28;20426;-84
2020/12/13 03:34:05;;;;;;;5.27;4.13;;;;;;;6.41;100.00;95368.88;5035115;28;20398;-84
2020/12/13 03:36:32;;;;;;;6.83;4.63;;;;;;;6.40;100.00;95367.44;5033985;28;20439;-85
2020/12/13 03:38:58;;;;;;;5.40;4.47;;;;;;;6.42;100.00;95364.94;5034215;28;20440;-84
2020/12/13 03:41:24;;;;;;;6.30;5.20;;;;;;;6.52;100.00;95369.75;5034739;28;20424;-84
2020/12/13 03:43:51;;;;;;;6.17;5.03;;;;;;;6.45;100.00;95377.25;5034764;28;20487;-84
2020/12/13 03:46:17;;;;;;;5.03;4.10;;;;;;;6.36;100.00;95380.47;5034186;28;20418;-85
2020/12/13 03:48:44;;;;;;;4.80;4.30;;;;;;;6.37;100.00;95381.91;5034426;28;20470;-85
2020/12/13 03:51:11;;;;;;;6.23;5.00;;;;;;;6.34;100.00;95387.63;5034795;28;20435;-85
2020/12/13 03:53:37;;;;;;;6.53;5.00;;;;;;;6.35;100.00;95387.09;5034205;28;20431;-85
2020/12/13 03:56:04;;;;;;;6.00;4.83;;;;;;;6.32;100.00;95398.88;5034528;28;20430;-86
2020/12/13 03:58:30;;;;;;;6.70;4.77;;;;;;;6.32;100.00;95393.53;5034339;28;20525;-86
2020/12/13 04:00:56;;;;;;;6.60;5.90;;;;;;;6.33;100.00;95396.91;5034521;28;20413;-86
2020/12/13 04:03:23;;;;;;;6.57;4.53;;;;;;;6.35;100.00;95402.47;5034244;28;20398;-86
2020/12/13 04:05:50;;;;;;;6.43;4.77;;;;;;;6.34;100.00;95411.72;5033746;28;20514;-86
2020/12/13 04:08:16;;;;;;;6.70;5.30;;;;;;;6.33;100.00;95402.97;5033879;28;20430;-85
2020/12/13 04:10:43;;;;;;;7.07;4.93;;;;;;;6.33;100.00;95421.72;5034524;28;20410;-86
2020/12/13 04:13:09;;;;;;;6.60;5.20;;;;;;;6.34;100.00;95414.41;5034166;28;20501;-85
2020/12/13 04:15:36;;;;;;;5.10;4.60;;;;;;;6.38;100.00;95430.84;5033861;28;20507;-85
2020/12/13 04:18:02;;;;;;;7.93;4.90;;;;;;;6.32;100.00;95427.63;5034438;28;20447;-86
2020/12/13 04:20:29;;;;;;;5.43;4.63;;;;;;;6.35;100.00;95432.66;5034505;28;20418;-86
2020/12/13 04:22:56;;;;;;;7.70;6.10;;;;;;;6.36;100.00;95428.69;5034095;28;20426;-86
2020/12/13 04:25:23;;;;;;;7.63;6.00;;;;;;;6.36;100.00;95434.06;5033867;28;20487;-85
2020/12/13 04:27:49;;;;;;;7.47;5.17;;;;;;;6.39;100.00;95435.66;5034230;28;20495;-85
2020/12/13 04:30:15;;;;;;;6.83;5.77;;;;;;;6.41;100.00;95435.88;5034157;28;20526;-86
2020/12/13 04:32:42;;;;;;;7.17;5.63;;;;;;;6.45;100.00;95443.53;5033949;28;20427;-86
2020/12/13 04:35:08;;;;;;;7.87;5.80;;;;;;;6.50;100.00;95441.94;5037908;28;20413;-86
2020/12/13 04:37:35;;;;;;;8.10;5.30;;;;;;;6.50;100.00;95447.28;5037284;28;21033;-86
2020/12/13 04:40:04;;;;;;;6.43;5.40;;;;;;;6.45;100.00;95443.53;5037795;28;20503;-85
2020/12/13 04:42:35;;;;;;;6.53;5.33;;;;;;;6.50;100.00;95441.94;5037496;28;20427;-86
2020/12/13 04:45:02;;;;;;;8.77;5.33;;;;;;;6.53;100.00;95459.63;5037452;28;20453;-85
2020/12/13 04:47:32;;;;;;;9.00;6.37;;;;;;;6.48;100.00;95455.88;5037347;28;20439;-86
2020/12/13 04:50:02;;;;;;;7.97;6.00;;;;;;;6.48;100.00;95453.19;5037870;28;20486;-87
2020/12/13 04:52:29;;;;;;;7.13;5.57;;;;;;;6.48;100.00;95453.88;5037962;28;20940;-86
2020/12/13 04:54:55;;;;;;;6.53;5.17;;;;;;;6.50;100.00;95458.00;5037976;28;20952;-87
2020/12/13 04:57:23;;;;;;;7.60;6.07;;;;;;;6.52;100.00;95458.19;5037078;28;20858;-87
2020/12/13 04:59:50;;;;;;;6.37;5.40;;;;;;;6.54;100.00;95463.75;5037538;28;20534;-88
2020/12/13 05:02:18;;;;;;;6.33;5.47;;;;;;;6.50;100.00;95458.72;5037744;28;20457;-87
2020/12/13 05:04:44;;;;;;;7.83;4.53;;;;;;;6.53;100.00;95459.63;5038011;28;20469;-87
2020/12/13 05:07:11;;;;;;;6.40;5.37;;;;;;;6.57;100.00;95462.66;5038578;28;20443;-86
2020/12/13 05:09:39;;;;;;;7.00;5.40;;;;;;;6.63;100.00;95452.50;5040053;28;20575;-87
2020/12/13 05:12:06;;;;;;;6.30;4.97;;;;;;;6.60;100.00;95456.25;5040090;28;20422;-86
2020/12/13 05:14:33;;;;;;;7.80;5.40;;;;;;;6.55;100.00;95459.81;5042244;28;20439;-87
2020/12/13 05:17:12;;;;;;;9.10;5.23;;;;;;;6.60;100.00;95475.00;5060809;28;20453;-84
2020/12/13 05:19:41;;;;;;;8.03;5.07;;;;;;;6.56;100.00;95477.31;5044115;28;20517;-87
2020/12/13 05:22:08;;;;;;;6.90;5.13;;;;;;;6.56;100.00;95478.03;5036685;28;20432;-86
2020/12/13 05:24:34;;;;;;;7.47;5.67;;;;;;;6.59;100.00;95492.31;5036843;28;20461;-86
2020/12/13 05:27:02;;;;;;;7.00;5.27;;;;;;;6.59;100.00;95485.00;5036421;28;20413;-85
2020/12/13 05:29:32;;;;;;;6.80;5.27;;;;;;;6.53;100.00;95489.09;5036526;28;20553;-86
2020/12/13 05:32:13;;;;;;;6.40;5.70;;;;;;;6.54;100.00;95485.91;5036832;28;20518;-85
2020/12/13 05:34:42;;;;;;;7.20;5.70;;;;;;;6.56;100.00;95491.44;5059657;28;20404;-85
2020/12/13 05:37:17;;;;;;;8.37;6.07;;;;;;;6.51;100.00;95495.00;5060285;28;20517;-85
2020/12/13 05:39:49;;;;;;;8.57;6.43;;;;;;;6.55;100.00;95500.00;5060501;28;20431;-85
2020/12/13 05:42:29;;;;;;;5.27;4.77;;;;;;;6.56;100.00;95493.38;5046339;28;20474;-85
2020/12/13 05:53:26;;;;;;;6.00;4.80;;;;;;;6.61;100.00;95508.59;5036601;28;20420;-86
2020/12/13 05:55:53;;;;;;;7.77;5.17;;;;;;;6.70;100.00;95518.78;5036591;28;20436;-86
2020/12/13 05:58:20;;;;;;;5.73;4.80;;;;;;;6.69;100.00;95520.75;5035937;28;20451;-85
2020/12/13 06:00:47;;;;;;;5.73;4.50;;;;;;;6.73;100.00;95517.72;5036082;28;20447;-85
2020/12/13 06:03:15;;;;;;;8.00;5.57;;;;;;;6.69;100.00;95520.75;5036691;28;20445;-86
2020/12/13 06:05:43;;;;;;;12.90;4.83;;;;;;;6.62;100.00;95523.41;5036156;28;20483;-85
2020/12/13 06:08:15;;;;;;;6.30;4.53;;;;;;;6.63;100.00;95527.53;5036144;28;20434;-85
2020/12/13 06:10:44;;;;;;;5.33;4.23;;;;;;;6.58;100.00;95536.47;5036199;28;20402;-85
2020/12/13 06:13:17;;;;;;;5.60;4.77;;;;;;;6.57;100.00;95530.38;5036275;28;20424;-85
2020/12/13 06:15:46;;;;;;;6.53;4.77;;;;;;;6.58;100.00;95537.16;5036295;28;20801;-86
2020/12/13 06:18:12;;;;;;;5.57;4.30;;;;;;;6.55;100.00;95538.22;5036169;28;20442;-86
2020/12/13 06:20:42;;;;;;;6.00;4.30;;;;;;;6.58;100.00;95537.16;5035557;28;20837;-86
2020/12/13 06:23:08;;;;;;;12.40;4.50;;;;;;;6.56;100.00;95538.94;5035991;28;20418;-86
2020/12/13 06:25:35;;;;;;;5.70;4.40;;;;;;;6.57;100.00;95535.03;5035158;28;20458;-86
2020/12/13 06:28:02;;;;;;;5.20;4.33;;;;;;;6.56;100.00;95542.34;5035235;28;20464;-86
2020/12/13 06:30:29;;;;;;;6.20;4.67;;;;;;;6.60;100.00;95544.69;5035594;28;20419;-86
2020/12/13 06:32:55;;;;;;;7.30;4.80;;;;;;;6.59;100.00;95543.25;5035817;28;20440;-86
2020/12/13 06:35:22;;;;;;;5.33;3.83;;;;;;;6.61;100.00;95548.78;5036511;28;20937;-87
2020/12/13 06:37:49;;;;;;;6.83;3.77;;;;;;;6.61;100.00;95551.47;5035948;28;20443;-86
2020/12/13 06:40:20;;;;;;;5.10;3.37;;;;;;;6.61;100.00;95551.47;5035817;28;20406;-86
2020/12/13 06:42:48;;;;;;;7.10;3.50;;;;;;;6.58;100.00;95557.91;5036783;28;20432;-85
2020/12/13 06:45:16;;;;;;;6.17;3.90;;;;;;;6.62;100.00;95558.97;5036988;28;20471;-86
2020/12/13 06:47:45;;;;;;;5.17;3.83;;;;;;;6.64;100.00;95564.50;5037594;28;20414;-85
2020/12/13 06:50:20;;;;;;;6.50;3.73;;;;;;;6.63;100.00;95578.44;5034822;28;20426;-87
2020/12/13 06:52:50;;;;;;;4.53;3.63;;;;;;;6.62;100.00;95574.34;5042081;28;20429;-86
2020/12/13 06:55:17;;;;;;;4.23;2.83;;;;;;;6.55;100.00;95575.06;5055486;28;20441;-85
2020/12/13 06:57:46;;;;;;;5.63;2.70;;;;;;;6.57;100.00;95578.63;5057660;28;20432;-85
2020/12/13 07:00:13;;;;;;;4.30;3.40;;;;;;;6.60;100.00;95582.19;5058104;28;20507;-84
2020/12/13 07:02:46;;;;;;;4.20;2.93;;;;;;;6.64;100.00;95593.28;5046296;28;20541;-86
2020/12/13 07:05:13;;;;;;;5.77;3.60;;;;;;;6.64;100.00;95587.94;5037134;28;20457;-85
2020/12/13 07:07:39;;;;;;;3.57;2.93;;;;;;;6.59;100.00;95602.19;5038170;28;20451;-85
2020/12/13 07:10:07;;;;;;;4.40;2.90;;;;;;;6.63;100.00;95597.94;5049091;28;20501;-85
2020/12/13 07:12:33;;;;;;;3.23;2.93;;;;;;;6.59;100.00;95599.53;5048452;28;20405;-85
2020/12/13 07:15:00;;;;;;;2.63;2.40;;;;;;;6.64;100.00;95609.38;5035699;28;20391;-86
2020/12/13 07:17:30;;;;;;;2.90;2.70;;;;;;;6.64;100.00;95612.75;5036217;28;20421;-86
2020/12/13 07:20:00;;;;;;;4.33;2.47;;;;;;;6.56;100.00;95617.38;5035647;28;20422;-86
2020/12/13 07:22:33;;;;;;;2.60;2.40;;;;;;;6.54;100.00;95616.47;5036985;28;20422;-87
2020/12/13 07:24:59;;;;;;;3.70;2.60;;;;;;;6.45;100.00;95621.09;5036100;28;20446;-87
2020/12/13 07:27:27;;;;;;;3.90;2.30;;;;;;;6.51;100.00;95628.25;5036229;28;20542;-86
2020/12/13 07:29:54;;;;;;;3.57;2.47;;;;;;;6.51;100.00;95623.63;5035070;28;20426;-86
2020/12/13 07:32:22;;;;;;;3.07;2.00;;;;;;;6.52;100.00;95630.41;5035383;28;20409;-87
2020/12/13 07:34:49;;;;;;;4.23;2.07;;;;;;;6.55;100.00;95636.69;5035953;28;20443;-86
2020/12/13 07:37:17;;;;;;;2.50;2.00;;;;;;;6.58;100.00;95644.34;5035575;28;20425;-86
2020/12/13 07:39:43;;;;;;;1.87;1.70;;;;;;;6.56;100.00;95646.84;5035184;28;20509;-86
2020/12/13 07:42:13;;;;;;;4.10;2.00;;;;;;;6.58;100.00;95647.03;5035228;28;20467;-87
2020/12/13 07:44:41;;;;;;;2.33;2.10;;;;;;;6.60;100.00;95646.53;5036248;28;20528;-87
2020/12/13 07:47:08;;;;;;;1.70;1.60;;;;;;;6.64;100.00;95655.63;5035488;28;20802;-88
2020/12/13 07:49:34;;;;;;;2.30;2.10;;;;;;;6.64;100.00;95654.94;5035088;28;20933;-89
2020/12/13 07:52:01;;;;;;;2.27;1.80;;;;;;;6.62;100.00;95662.78;5035426;28;20433;-87
2020/12/13 07:54:28;;;;;;;2.63;2.07;;;;;;;6.64;100.00;95668.34;5036371;28;20410;-87
2020/12/13 07:56:56;;;;;;;2.67;2.00;;;;;;;6.67;100.00;95673.34;5035815;28;20459;-88
2020/12/13 07:59:24;;;;;;;2.60;2.00;;;;;;;6.70;100.00;95666.94;5035930;28;20463;-87
2020/12/13 08:01:53;;;;;;;3.13;2.50;;;;;;;6.69;100.00;95670.13;5039381;28;20465;-87
2020/12/13 08:04:30;;;;;;;2.40;2.07;;;;;;;6.64;100.00;95682.44;5037490;28;20517;-87
2020/12/13 08:06:59;;;;;;;5.50;2.10;;;;;;;6.62;100.00;95679.59;5036628;28;20853;-88
2020/12/13 08:09:25;;;;;;;3.73;2.17;;;;;;;6.60;100.00;95684.75;5039976;28;20470;-87
2020/12/13 08:11:52;;;;;;;2.83;2.23;;;;;;;6.62;100.00;95697.63;5041257;28;20421;-88
2020/12/13 08:14:21;;;;;;;2.40;2.17;;;;;;;6.71;100.00;95694.44;5043662;28;20435;-88
2020/12/13 08:16:50;;;;;;;2.57;2.30;;;;;;;6.72;100.00;95690.53;5041249;28;20431;-89
2020/12/13 08:19:23;;;;;;;2.40;1.87;;;;;;;6.66;100.00;95698.00;5044097;28;20471;-86
2020/12/13 08:22:10;;;;;;;2.90;2.43;;;;;;;6.70;100.00;95709.09;5043329;28;20518;-88
2020/12/13 08:24:38;;;;;;;2.97;2.07;;;;;;;6.65;100.00;95708.00;5042487;28;20430;-88
2020/12/13 08:27:05;;;;;;;4.57;3.30;;;;;;;6.61;100.00;95712.97;5041515;28;20394;-88
2020/12/13 08:29:33;;;;;;;3.13;2.53;;;;;;;6.68;100.00;95722.31;5040826;28;20436;-88
2020/12/13 08:32:00;;;;;;;3.90;2.47;;;;;;;6.76;100.00;95707.00;5039538;28;20498;-88
2020/12/13 08:34:29;;;;;;;4.07;2.67;;;;;;;6.80;100.00;95707.34;5044708;28;20458;-84
2020/12/13 08:36:59;;;;;;;4.07;2.80;;;;;;;6.75;100.00;95716.28;5061346;28;20427;-84
2020/12/13 08:39:28;;;;;;;4.17;2.70;;;;;;;6.79;100.00;95713.97;5060946;28;20485;-85
2020/12/13 08:41:54;;;;;;;3.10;2.77;;;;;;;6.80;100.00;95721.47;5061063;28;20438;-86
2020/12/13 08:44:30;;;;;;;4.67;3.33;;;;;;;6.86;100.00;95715.97;5046208;28;20455;-86
2020/12/13 08:46:57;;;;;;;5.23;3.20;;;;;;;6.85;100.00;95715.25;5041283;28;20477;-87
2020/12/13 08:49:26;;;;;;;2.60;2.30;;;;;;;6.94;100.00;95706.69;5041282;28;20498;-86
2020/12/13 08:51:53;;;;;;;3.20;2.97;;;;;;;6.90;100.00;95716.31;5039851;28;20977;-86
2020/12/13 08:54:20;;;;;;;3.73;3.43;;;;;;;6.90;100.00;95716.31;5040070;28;20508;-86
2020/12/13 08:56:52;;;;;;;3.00;2.77;;;;;;;6.91;100.00;95731.91;5038595;28;20955;-86
2020/12/13 08:59:20;;;;;;;3.23;2.93;;;;;;;6.92;100.00;95719.22;5038866;28;20445;-86
2020/12/13 09:01:53;;;;;;;6.93;3.33;;;;;;;7.03;100.00;95728.88;5040564;28;20443;-86
2020/12/13 09:04:21;;;;;;;3.83;3.43;;;;;;;7.03;100.00;95737.66;5041429;28;20461;-86
2020/12/13 09:06:56;;;;;;;7.07;3.40;;;;;;;7.16;100.00;95748.25;5040666;28;20443;-87
2020/12/13 09:09:23;;;;;;;5.33;4.00;;;;;;;7.10;100.00;95749.66;5040254;28;20451;-86
2020/12/13 09:11:50;;;;;;;4.43;3.40;;;;;;;7.18;100.00;95756.47;5039965;28;20418;-86
2020/12/13 09:14:27;;;;;;;5.20;3.23;;;;;;;7.27;100.00;95764.03;5039082;28;20410;-86
2020/12/13 09:16:54;;;;;;;5.00;3.70;;;;;;;7.29;100.00;95758.84;5038080;28;20410;-85
2020/12/13 09:19:20;;;;;;;8.03;4.17;;;;;;;7.34;100.00;95779.44;5037223;28;20958;-86
2020/12/13 09:21:50;;;;;;;7.73;4.80;;;;;;;7.30;100.00;95776.38;5038358;28;20422;-86
2020/12/13 09:24:19;;;;;;;5.83;4.83;;;;;;;7.27;100.00;95790.13;5037838;28;20460;-86
2020/12/13 09:27:06;;;;;;;6.53;4.47;;;;;;;7.26;100.00;95796.75;5037760;28;20411;-86
2020/12/13 09:29:33;;;;;;;4.80;4.13;;;;;;;7.28;100.00;95794.97;5037922;28;20451;-86
2020/12/13 09:32:00;;;;;;;5.33;4.53;;;;;;;7.35;100.00;95802.34;5037852;28;20621;-85
2020/12/13 09:34:27;;;;;;;6.00;4.40;;;;;;;7.32;100.00;95798.03;5037467;28;20390;-85
2020/12/13 09:36:53;;;;;;;4.37;3.97;;;;;;;7.33;100.00;95807.50;5037320;28;20435;-84
2020/12/13 09:39:20;;;;;;;5.60;4.87;;;;;;;7.38;100.00;95812.00;5037716;28;20437;-84
2020/12/13 09:41:47;;;;;;;5.57;4.90;;;;;;;7.42;100.00;95811.66;5037788;28;20409;-83
2020/12/13 09:44:14;;;;;;;9.20;4.57;;;;;;;7.45;100.00;95807.94;5037380;28;20522;-84
2020/12/13 09:46:40;;;;;;;7.87;4.87;;;;;;;7.43;100.00;95807.72;5038208;28;20953;-85
2020/12/13 09:49:07;;;;;;;7.97;4.17;;;;;;;7.47;100.00;95800.03;5037251;28;20451;-85
2020/12/13 09:51:33;;;;;;;7.20;4.87;;;;;;;7.57;100.00;95806.34;5037781;28;20397;-83
2020/12/13 09:53:59;;;;;;;20.87;5.03;;;;;;;7.55;100.00;95804.19;5037682;28;20502;-85
2020/12/13 09:56:27;;;;;;;6.20;4.27;;;;;;;7.73;100.00;95796.34;5038031;28;20458;-84
2020/12/13 09:58:53;;;;;;;5.57;4.60;;;;;;;7.75;100.00;95804.59;5037144;28;20511;-84
2020/12/13 10:01:20;;;;;;;5.40;4.80;;;;;;;7.73;100.00;95802.44;5037308;28;20447;-85
2020/12/13 10:03:52;;;;;;;6.00;4.50;;;;;;;7.74;100.00;95801.19;5041563;28;20386;-84
2020/12/13 10:06:33;;;;;;;8.07;4.77;;;;;;;7.74;100.00;95805.81;5038695;28;20946;-85
2020/12/13 10:09:07;;;;;;;4.50;3.80;;;;;;;7.82;100.00;95801.94;5039503;28;20799;-85
2020/12/13 10:11:37;;;;;;;5.47;4.50;;;;;;;7.90;100.00;95801.91;5037737;28;20898;-85
2020/12/13 10:14:13;;;;;;;9.93;4.67;;;;;;;8.05;99.72;95813.41;5039715;28;20505;-85
2020/12/13 10:16:40;;;;;;;8.00;4.40;;;;;;;8.10;99.28;95811.81;5038064;28;20431;-84
2020/12/13 10:19:08;;;;;;;4.63;4.03;;;;;;;8.18;98.11;95811.78;5039629;28;20434;-85
2020/12/13 10:21:35;;;;;;;5.50;3.50;;;;;;;8.22;97.80;95812.16;5040771;28;20830;-85
2020/12/13 10:24:03;;;;;;;5.53;3.77;;;;;;;8.14;95.35;95814.84;5038784;28;20473;-85
2020/12/13 10:26:32;;;;;;;3.20;2.90;;;;;;;7.99;94.90;95812.84;5042871;28;20437;-84
2020/12/13 10:28:59;;;;;;;5.03;2.83;;;;;;;8.03;95.52;95815.19;5039204;28;20473;-84
2020/12/13 10:31:27;;;;;;;3.80;3.00;;;;;;;8.16;93.08;95809.66;5038839;28;20498;-85
2020/12/13 10:33:54;;;;;;;5.07;2.33;;;;;;;8.18;91.91;95809.81;5038610;28;20405;-85
2020/12/13 10:36:20;;;;;;;4.20;2.13;;;;;;;8.17;90.16;95815.75;5038462;28;20433;-84
2020/12/13 10:38:48;;;;;;;2.83;1.63;;;;;;;7.99;90.49;95807.47;5037493;28;20470;-84
2020/12/13 10:41:15;;;;;;;2.00;1.40;;;;;;;7.94;90.81;95810.34;5037546;28;20439;-85
2020/12/13 10:43:42;;;;;;;3.13;1.63;;;;;;;8.08;89.07;95814.31;5037790;28;20426;-85
2020/12/13 10:46:09;;;;;;;4.67;1.63;;;;;;;8.04;87.50;95814.66;5039536;28;20561;-84
2020/12/13 10:48:35;;;;;;;5.73;1.97;;;;;;;8.12;88.21;95811.97;5037063;28;20554;-84
2020/12/13 10:51:02;;;;;;;2.20;1.40;;;;;;;8.08;88.21;95803.56;5037447;28;20456;-85
2020/12/13 10:53:29;;;;;;;2.67;1.77;;;;;;;8.14;88.53;95812.16;5037489;28;20478;-85
2020/12/13 10:55:55;;;;;;;4.33;1.70;;;;;;;8.31;87.77;95809.69;5037709;28;20459;-84
2020/12/13 10:58:22;;;;;;;4.20;1.70;;;;;;;8.34;87.13;95813.25;5036848;28;20823;-84
2020/12/13 11:00:48;;;;;;;1.83;1.37;;;;;;;8.36;87.25;95810.75;5037434;28;20431;-84
2020/12/13 11:03:16;;;;;;;2.00;1.40;;;;;;;8.29;87.23;95822.94;5037381;28;20416;-84
2020/12/13 11:05:43;;;;;;;2.00;1.27;;;;;;;8.23;86.99;95819.69;5037162;28;20448;-83
2020/12/13 11:08:10;;;;;;;2.27;1.90;;;;;;;8.29;87.17;95816.84;5036840;28;20449;-83
2020/12/13 11:10:37;;;;;;;2.47;1.20;;;;;;;8.29;87.11;95812.19;5037551;28;20433;-84
2020/12/13 11:13:03;;;;;;;4.43;1.90;;;;;;;8.28;86.73;95821.50;5037414;28;20521;-85
2020/12/13 11:15:30;;;;;;;2.10;1.83;;;;;;;8.18;86.58;95823.25;5037710;28;20421;-85
2020/12/13 11:17:56;;;;;;;5.17;1.97;;;;;;;8.17;86.39;95832.59;5038004;28;20455;-85
2020/12/13 11:20:24;;;;;;;2.13;1.20;;;;;;;8.06;86.52;95822.19;5037473;28;20412;-86
2020/12/13 11:22:51;;;;;;;2.00;1.70;;;;;;;8.10;86.98;95822.56;5036428;28;20436;-85
2020/12/13 11:25:17;;;;;;;3.20;1.70;;;;;;;8.08;87.33;95823.06;5036427;28;20446;-85
2020/12/13 11:27:44;;;;;;;1.60;1.30;;;;;;;8.16;86.74;95830.44;5037686;28;20410;-85
2020/12/13 11:30:11;;;;;;;6.47;1.70;;;;;;;8.20;86.00;95823.47;5037916;28;20487;-86
2020/12/13 11:33:05;;;;;;;4.33;1.33;;;;;;;8.19;85.92;95827.38;5047668;28;20409;-87
2020/12/13 11:35:32;;;;;;;1.53;1.27;;;;;;;8.23;85.51;95827.03;5058824;28;20406;-86
2020/12/13 11:37:59;;;;;;;3.83;1.50;;;;;;;8.17;86.23;95827.22;5057617;28;20431;-87
2020/12/13 11:40:25;;;;;;;2.87;1.60;;;;;;;8.08;86.31;95827.75;5054884;28;20453;-86
2020/12/13 11:42:51;;;;;;;3.27;2.00;;;;;;;8.17;85.77;95835.28;5043465;28;20974;-86
2020/12/13 11:45:18;;;;;;;2.10;1.27;;;;;;;8.15;86.25;95829.72;5049964;28;20464;-85